createdAt,value
2022-10-03T00:02:24.437Z,95839.22
2022-10-03T00:05:11.300Z,95839.06
2022-10-03T00:07:37.687Z,95840.13
2022-10-03T00:10:30.983Z,95834.97
2022-10-03T00:13:06.526Z,95835.53
2022-10-03T00:15:42.287Z,95830.00
2022-10-03T00:18:40.220Z,95839.25
2022-10-03T00:21:25.501Z,95842.81
2022-10-03T00:23:54.553Z,95830.00
2022-10-03T00:26:40.335Z,95841.50
2022-10-03T00:29:19.306Z,95837.94
2022-10-03T00:32:01.264Z,95844.09
2022-10-03T00:34:52.631Z,95841.34
2022-10-03T00:37:19.097Z,95841.88
2022-10-03T00:40:16.771Z,95837.13
2022-10-03T00:43:00.735Z,95839.81
2022-10-03T00:45:45.991Z,95840.22
2022-10-03T00:48:49.594Z,95837.63
2022-10-03T00:51:29.756Z,95844.97
2022-10-03T00:54:13.284Z,95839.94
2022-10-03T00:57:07.697Z,95846.00
2022-10-03T00:59:53.096Z,95834.44
2022-10-03T01:02:41.333Z,95839.22
2022-10-03T01:05:32.751Z,95837.59
2022-10-03T01:08:24.563Z,95835.22
2022-10-03T01:11:06.470Z,95842.59
2022-10-03T01:13:44.888Z,95836.53
2022-10-03T01:16:21.464Z,95840.09
2022-10-03T01:19:01.977Z,95841.38
2022-10-03T01:21:53.885Z,95847.88
2022-10-03T01:24:32.582Z,95844.31
2022-10-03T01:27:05.572Z,95842.84
2022-10-03T01:29:53.345Z,95840.19
2022-10-03T01:32:39.315Z,95843.97
2022-10-03T01:35:18.103Z,95851.06
2022-10-03T01:38:06.196Z,95846.38
2022-10-03T01:40:57.574Z,95850.41
2022-10-03T01:43:38.771Z,95854.75
2022-10-03T01:46:15.634Z,95840.00
2022-10-03T01:48:58.894Z,95847.50
2022-10-03T01:51:45.768Z,95854.97
2022-10-03T01:54:41.625Z,95848.00
2022-10-03T01:57:35.206Z,95844.59
2022-10-03T02:00:11.056Z,95830.75
2022-10-03T02:02:46.641Z,95836.41
2022-10-03T02:05:29.064Z,95836.47
2022-10-03T02:08:03.323Z,95832.63
2022-10-03T02:10:53.991Z,95831.91
2022-10-03T02:13:35.662Z,95832.34
2022-10-03T02:16:02.412Z,95832.38
2022-10-03T02:18:39.395Z,95834.97
2022-10-03T02:21:15.937Z,95829.41
2022-10-03T02:23:44.214Z,95833.63
2022-10-03T02:26:44.746Z,95835.84
2022-10-03T02:29:39.234Z,95825.88
2022-10-03T02:32:43.968Z,95821.25
2022-10-03T02:35:35.308Z,95824.63
2022-10-03T02:38:23.764Z,95825.56
2022-10-03T02:41:24.872Z,95819.19
2022-10-03T02:44:09.789Z,95822.78
2022-10-03T02:47:13.535Z,95823.44
2022-10-03T02:50:14.296Z,95816.50
2022-10-03T02:52:47.586Z,95815.44
2022-10-03T02:55:35.201Z,95821.03
2022-10-03T02:58:38.488Z,95810.81
2022-10-03T03:01:24.218Z,95813.47
2022-10-03T03:04:07.370Z,95817.16
2022-10-03T03:07:11.159Z,95816.97
2022-10-03T03:09:57.270Z,95818.25
2022-10-03T03:12:33.021Z,95815.34
2022-10-03T03:15:18.228Z,95814.56
2022-10-03T03:18:08.828Z,95821.78
2022-10-03T03:21:13.395Z,95814.59
2022-10-03T03:24:06.253Z,95824.28
2022-10-03T03:26:54.048Z,95820.47
2022-10-03T03:29:55.975Z,95816.97
2022-10-03T03:32:22.454Z,95816.38
2022-10-03T03:34:54.708Z,95812.72
2022-10-03T03:37:34.927Z,95812.91
2022-10-03T03:40:22.436Z,95813.84
2022-10-03T03:42:59.370Z,95813.25
2022-10-03T03:45:32.120Z,95807.94
2022-10-03T03:48:23.483Z,95802.25
2022-10-03T03:50:52.810Z,95803.53
2022-10-03T03:53:37.372Z,95799.25
2022-10-03T03:56:22.430Z,95798.16
2022-10-03T03:59:35.278Z,95795.16
2022-10-03T04:02:55.389Z,95798.44
2022-10-03T04:05:27.527Z,95795.63
2022-10-03T04:07:56.773Z,95791.59
2022-10-03T04:10:35.580Z,95790.47
2022-10-03T04:13:27.142Z,95785.97
2022-10-03T04:16:18.871Z,95795.19
2022-10-03T04:19:00.790Z,95788.59
2022-10-03T04:21:54.644Z,95794.94
2022-10-03T04:24:28.673Z,95791.50
2022-10-03T04:27:08.667Z,95793.00
2022-10-03T04:29:42.302Z,95784.88
2022-10-03T04:32:11.636Z,95779.63
2022-10-03T04:35:09.791Z,95767.16
2022-10-03T04:37:48.348Z,95773.56
2022-10-03T04:40:26.604Z,95759.66
2022-10-03T04:42:58.924Z,95761.09
2022-10-03T04:45:46.162Z,95753.69
2022-10-03T04:48:27.168Z,95750.69
2022-10-03T04:51:41.651Z,95754.06
2022-10-03T04:54:16.619Z,95757.72
2022-10-03T04:57:08.244Z,95759.47
2022-10-03T04:59:52.470Z,95755.72
2022-10-03T05:02:36.706Z,95759.44
2022-10-03T05:05:25.821Z,95754.81
2022-10-03T05:08:01.101Z,95752.28
2022-10-03T05:10:42.080Z,95750.06
2022-10-03T05:13:20.268Z,95747.41
2022-10-03T05:16:14.779Z,95741.88
2022-10-03T05:18:53.356Z,95735.97
2022-10-03T05:21:20.100Z,95746.16
2022-10-03T05:23:46.494Z,95740.50
2022-10-03T05:26:51.431Z,95748.44
2022-10-03T05:29:31.434Z,95752.50
2022-10-03T05:32:25.648Z,95741.03
2022-10-03T05:35:07.341Z,95738.63
2022-10-03T05:38:12.524Z,95746.53
2022-10-03T05:40:44.596Z,95745.84
2022-10-03T05:43:10.957Z,95751.28
2022-10-03T05:46:19.058Z,95747.34
2022-10-03T05:48:49.170Z,95751.72
2022-10-03T05:51:18.841Z,95759.28
2022-10-03T05:54:00.364Z,95751.16
2022-10-03T05:56:45.516Z,95756.47
2022-10-03T05:59:49.546Z,95768.34
2022-10-03T06:02:30.225Z,95769.97
2022-10-03T06:05:00.770Z,95777.09
2022-10-03T06:07:40.378Z,95779.91
2022-10-03T06:10:51.952Z,95783.41
2022-10-03T06:13:53.317Z,95783.63
2022-10-03T06:16:45.871Z,95776.50
2022-10-03T06:19:21.869Z,95781.81
2022-10-03T06:22:22.326Z,95783.81
2022-10-03T06:25:05.955Z,95785.00
2022-10-03T06:27:50.837Z,95789.88
2022-10-03T06:30:24.908Z,95793.03
2022-10-03T06:33:15.717Z,95792.34
2022-10-03T06:36:10.052Z,95798.22
2022-10-03T06:38:58.354Z,95809.22
2022-10-03T06:42:01.870Z,95801.13
2022-10-03T06:44:31.291Z,95798.22
2022-10-03T06:47:06.498Z,95804.28
2022-10-03T06:50:02.000Z,95802.66
2022-10-03T06:52:52.604Z,95797.31
2022-10-03T06:56:04.385Z,95797.44
2022-10-03T06:58:58.381Z,95806.91
2022-10-03T07:01:35.504Z,95801.59
2022-10-03T07:04:22.809Z,95801.94
2022-10-03T07:07:04.546Z,95811.41
2022-10-03T07:09:55.813Z,95813.28
2022-10-03T07:12:43.911Z,95817.78
2022-10-03T07:15:19.073Z,95820.28
2022-10-03T07:17:51.527Z,95818.78
2022-10-03T07:20:25.097Z,95822.91
2022-10-03T07:23:16.677Z,95820.44
2022-10-03T07:26:30.121Z,95811.03
2022-10-03T07:29:19.716Z,95813.53
2022-10-03T07:31:56.183Z,95819.22
2022-10-03T07:34:39.463Z,95820.91
2022-10-03T07:37:17.835Z,95816.75
2022-10-03T07:39:57.847Z,95815.63
2022-10-03T07:42:43.577Z,95816.16
2022-10-03T07:45:50.750Z,95823.13
2022-10-03T07:48:23.182Z,95823.44
2022-10-03T07:51:08.169Z,95828.53
2022-10-03T07:53:54.117Z,95827.97
2022-10-03T07:56:23.624Z,95841.06
2022-10-03T07:59:17.450Z,95832.16
2022-10-03T08:02:02.573Z,95842.34
2022-10-03T08:04:51.160Z,95850.78
2022-10-03T08:07:36.391Z,95841.00
2022-10-03T08:10:18.804Z,95847.94
2022-10-03T08:13:22.830Z,95850.19
2022-10-03T08:16:26.430Z,95862.94
2022-10-03T08:19:11.050Z,95869.44
2022-10-03T08:21:51.372Z,95857.75
2022-10-03T08:24:17.760Z,95858.56
2022-10-03T08:26:56.289Z,95846.66
2022-10-03T08:30:03.814Z,95850.00
2022-10-03T08:32:51.990Z,95849.09
2022-10-03T08:35:35.890Z,95850.97
2022-10-03T08:38:28.221Z,95858.75
2022-10-03T08:41:06.860Z,95845.91
2022-10-03T08:44:15.284Z,95841.31
2022-10-03T08:47:02.550Z,95843.44
2022-10-03T08:49:55.195Z,95843.19
2022-10-03T08:52:46.064Z,95839.56
2022-10-03T08:55:28.828Z,95838.94
2022-10-03T08:58:25.883Z,95840.28
2022-10-03T09:01:26.601Z,95831.09
2022-10-03T09:04:04.285Z,95828.72
2022-10-03T09:07:17.941Z,95834.81
2022-10-03T09:10:10.149Z,95833.28
2022-10-03T09:12:45.631Z,95833.03
2022-10-03T09:15:34.062Z,95832.16
2022-10-03T09:18:12.843Z,95823.53
2022-10-03T09:20:51.506Z,95823.00
2022-10-03T09:23:29.172Z,95829.50
2022-10-03T09:26:11.010Z,95838.94
2022-10-03T09:28:52.506Z,95833.78
2022-10-03T09:31:44.327Z,95830.53
2022-10-03T09:34:48.645Z,95825.69
2022-10-03T09:38:07.541Z,95821.84
2022-10-03T09:41:11.882Z,95826.38
2022-10-03T09:43:47.261Z,95819.13
2022-10-03T09:46:30.569Z,95818.31
2022-10-03T09:49:31.513Z,95816.25
2022-10-03T09:52:15.784Z,95817.38
2022-10-03T09:55:19.676Z,95802.84
2022-10-03T09:58:04.915Z,95803.16
2022-10-03T10:00:51.035Z,95795.41
2022-10-03T10:03:56.725Z,95795.22
2022-10-03T10:06:32.121Z,95792.53
2022-10-03T10:09:17.303Z,95797.84
2022-10-03T10:12:02.068Z,95789.31
2022-10-03T10:14:39.199Z,95794.09
2022-10-03T10:17:30.590Z,95787.44
2022-10-03T10:20:27.904Z,95784.03
2022-10-03T10:23:22.380Z,95784.59
2022-10-03T10:25:52.470Z,95785.59
2022-10-03T10:28:31.731Z,95784.44
2022-10-03T10:31:22.727Z,95786.81
2022-10-03T10:34:11.411Z,95789.38
2022-10-03T10:36:56.770Z,95792.72
2022-10-03T10:39:49.461Z,95793.94
2022-10-03T10:42:54.827Z,95800.84
2022-10-03T10:45:43.162Z,95793.84
2022-10-03T10:48:45.025Z,95797.09
2022-10-03T10:51:45.926Z,95797.53
2022-10-03T10:54:43.285Z,95801.81
2022-10-03T10:57:25.371Z,95791.19
2022-10-03T11:00:30.472Z,95790.84
2022-10-03T11:03:28.339Z,95791.00
2022-10-03T11:06:12.981Z,95782.88
2022-10-03T11:09:13.111Z,95781.28
2022-10-03T11:11:57.939Z,95774.97
2022-10-03T11:14:33.689Z,95783.84
2022-10-03T11:17:11.914Z,95794.41
2022-10-03T11:20:03.503Z,95780.22
2022-10-03T11:23:07.556Z,95777.69
2022-10-03T11:26:11.323Z,95785.09
2022-10-03T11:29:05.620Z,95775.06
2022-10-03T11:32:00.473Z,95785.38
2022-10-03T11:34:42.303Z,95781.25
2022-10-03T11:37:17.627Z,95783.81
2022-10-03T11:39:47.074Z,95775.72
2022-10-03T11:42:34.826Z,95779.78
2022-10-03T11:45:04.153Z,95783.56
2022-10-03T11:47:50.506Z,95778.94
2022-10-03T11:50:26.837Z,95781.88
2022-10-03T11:53:04.083Z,95770.69
2022-10-03T11:55:42.802Z,95779.97
2022-10-03T11:58:41.113Z,95775.16
2022-10-03T12:01:13.695Z,95771.56
2022-10-03T12:03:49.736Z,95772.72
2022-10-03T12:06:26.078Z,95770.78
2022-10-03T12:09:19.815Z,95783.69
2022-10-03T12:12:12.048Z,95776.66
2022-10-03T12:14:50.248Z,95779.13
2022-10-03T12:17:25.155Z,95770.03
2022-10-03T12:20:06.878Z,95766.19
2022-10-03T12:22:47.210Z,95761.25
2022-10-03T12:25:23.948Z,95758.53
2022-10-03T12:28:02.966Z,95766.56
2022-10-03T12:30:39.474Z,95781.28
2022-10-03T12:33:08.658Z,95776.38
2022-10-03T12:35:53.253Z,95762.34
2022-10-03T12:38:31.837Z,95766.28
2022-10-03T12:41:07.853Z,95761.75
2022-10-03T12:43:40.377Z,95764.44
2022-10-03T12:46:16.447Z,95753.72
2022-10-03T12:48:47.817Z,95747.03
2022-10-03T12:51:42.176Z,95763.69
2022-10-03T12:54:38.679Z,95773.03
2022-10-03T12:57:38.937Z,95771.66
2022-10-03T13:00:13.541Z,95757.84
2022-10-03T13:02:51.853Z,95767.13
2022-10-03T13:05:56.267Z,95759.56
2022-10-03T13:09:04.532Z,95757.63
2022-10-03T13:11:40.365Z,95756.16
2022-10-03T13:14:18.354Z,95744.66
2022-10-03T13:17:01.927Z,95758.22
2022-10-03T13:20:00.692Z,95755.78
2022-10-03T13:22:48.868Z,95748.81
2022-10-03T13:25:33.638Z,95752.56
2022-10-03T13:28:25.219Z,95739.22
2022-10-03T13:30:54.739Z,95750.31
2022-10-03T13:33:27.913Z,95748.31
2022-10-03T13:36:01.149Z,95739.16
2022-10-03T13:39:04.233Z,95739.16
2022-10-03T13:42:14.608Z,95749.78
2022-10-03T13:44:47.056Z,95743.41
2022-10-03T13:47:35.277Z,95740.28
2022-10-03T13:50:07.249Z,95751.66
2022-10-03T13:52:42.895Z,95753.63
2022-10-03T13:55:15.051Z,95725.94
2022-10-03T13:58:05.955Z,95742.00
2022-10-03T14:01:04.842Z,95737.81
2022-10-03T14:04:16.220Z,95745.06
2022-10-03T14:06:59.669Z,95734.03
2022-10-03T14:10:05.112Z,95725.78
2022-10-03T14:12:56.644Z,95730.06
2022-10-03T14:15:31.678Z,95732.97
2022-10-03T14:18:26.169Z,95727.88
2022-10-03T14:20:55.528Z,95726.63
2022-10-03T14:24:09.529Z,95717.19
2022-10-03T14:26:47.760Z,95712.50
2022-10-03T14:29:27.587Z,95713.38
2022-10-03T14:32:01.843Z,95713.94
2022-10-03T14:34:28.267Z,95721.41
2022-10-03T14:37:13.003Z,95710.19
2022-10-03T14:40:13.518Z,95715.03
2022-10-03T14:43:05.457Z,95716.13
2022-10-03T14:45:38.431Z,95714.44
2022-10-03T14:48:20.986Z,95713.66
2022-10-03T14:50:49.694Z,95718.44
2022-10-03T14:53:22.909Z,95714.59
2022-10-03T14:56:08.536Z,95715.78
2022-10-03T14:58:46.850Z,95727.81
2022-10-03T15:01:16.233Z,95720.72
2022-10-03T15:03:49.718Z,95726.81
2022-10-03T15:06:20.902Z,95717.63
2022-10-03T15:08:53.746Z,95714.31
2022-10-03T15:11:30.131Z,95706.97
2022-10-03T15:13:59.903Z,95705.16
2022-10-03T15:16:26.833Z,95709.28
2022-10-03T15:19:06.366Z,95707.97
2022-10-03T15:21:35.190Z,95711.59
2022-10-03T15:24:06.772Z,95698.84
2022-10-03T15:26:35.989Z,95696.81
2022-10-03T15:29:07.328Z,95707.44
2022-10-03T15:31:39.740Z,95702.41
2022-10-03T15:34:17.234Z,95704.16
2022-10-03T15:36:49.259Z,95700.94
2022-10-03T15:39:23.772Z,95700.25
2022-10-03T15:41:54.771Z,95703.81
2022-10-03T15:44:30.423Z,95701.94
2022-10-03T15:47:00.491Z,95699.25
2022-10-03T15:49:36.624Z,95699.34
2022-10-03T15:52:19.261Z,95696.78
2022-10-03T15:54:54.720Z,95691.31
2022-10-03T15:57:32.652Z,95699.19
2022-10-03T16:00:03.350Z,95688.94
2022-10-03T16:02:30.098Z,95697.41
2022-10-03T16:04:57.096Z,95691.00
2022-10-03T16:07:33.601Z,95695.78
2022-10-03T16:10:23.237Z,95691.91
2022-10-03T16:12:52.429Z,95699.56
2022-10-03T16:15:51.467Z,95691.91
2022-10-03T16:18:20.758Z,95706.63
2022-10-03T16:20:53.581Z,95691.78
2022-10-03T16:23:19.967Z,95693.84
2022-10-03T16:25:46.327Z,95686.81
2022-10-03T16:28:15.290Z,95701.56
2022-10-03T16:30:46.738Z,95693.72
2022-10-03T16:33:18.189Z,95691.69
2022-10-03T16:35:47.925Z,95689.81
2022-10-03T16:38:21.403Z,95693.31
2022-10-03T16:41:04.983Z,95693.03
2022-10-03T16:43:34.682Z,95695.53
2022-10-03T16:46:05.659Z,95702.91
2022-10-03T16:48:34.101Z,95686.09
2022-10-03T16:51:01.274Z,95685.03
2022-10-03T16:53:27.916Z,95688.78
2022-10-03T16:56:06.465Z,95694.44
2022-10-03T16:58:35.531Z,95697.16
2022-10-03T17:01:26.969Z,95688.81
2022-10-03T17:04:02.240Z,95700.63
2022-10-03T17:06:35.006Z,95697.53
2022-10-03T17:09:14.972Z,95705.16
2022-10-03T17:11:42.711Z,95699.53
2022-10-03T17:14:09.574Z,95700.88
2022-10-03T17:16:40.206Z,95703.13
2022-10-03T17:19:16.699Z,95706.75
2022-10-03T17:21:48.254Z,95696.22
2022-10-03T17:24:20.462Z,95696.34
2022-10-03T17:26:50.124Z,95692.75
2022-10-03T17:29:26.419Z,95691.22
2022-10-03T17:31:58.865Z,95691.94
2022-10-03T17:34:56.363Z,95690.09
2022-10-03T17:37:51.401Z,95685.09
2022-10-03T17:40:26.698Z,95694.97
2022-10-03T17:42:58.975Z,95697.16
2022-10-03T17:45:28.397Z,95694.50
2022-10-03T17:48:03.538Z,95697.50
2022-10-03T17:50:30.055Z,95690.09
2022-10-03T17:52:57.350Z,95695.19
2022-10-03T17:55:29.632Z,95689.97
2022-10-03T17:58:00.183Z,95691.94
2022-10-03T18:00:31.395Z,95695.19
2022-10-03T18:03:03.028Z,95707.31
2022-10-03T18:05:35.175Z,95696.78
2022-10-03T18:08:05.237Z,95701.84
2022-10-03T18:10:32.888Z,95710.28
2022-10-03T18:13:01.693Z,95710.47
2022-10-03T18:15:28.063Z,95709.03
2022-10-03T18:18:23.915Z,95716.41
2022-10-03T18:21:15.150Z,95712.56
2022-10-03T18:23:55.508Z,95705.97
2022-10-03T18:26:31.318Z,95713.72
2022-10-03T18:29:19.783Z,95713.00
2022-10-03T18:31:59.096Z,95711.88
2022-10-03T18:35:01.051Z,95699.25
2022-10-03T18:37:27.425Z,95710.16
2022-10-03T18:39:56.141Z,95706.56
2022-10-03T18:42:25.337Z,95702.75
2022-10-03T18:44:51.854Z,95685.03
2022-10-03T18:47:37.425Z,95691.72
2022-10-03T18:50:19.082Z,95695.53
2022-10-03T18:53:17.240Z,95706.31
2022-10-03T18:56:23.336Z,95701.91
2022-10-03T18:59:33.708Z,95705.59
2022-10-03T19:02:00.850Z,95693.56
2022-10-03T19:04:35.900Z,95690.91
2022-10-03T19:07:24.162Z,95697.72
2022-10-03T19:10:06.016Z,95695.09
2022-10-03T19:12:35.643Z,95690.41
2022-10-03T19:15:17.186Z,95691.72
2022-10-03T19:18:02.017Z,95701.19
2022-10-03T19:20:33.784Z,95684.44
2022-10-03T19:23:13.523Z,95700.59
2022-10-03T19:25:42.960Z,95705.03
2022-10-03T19:28:28.197Z,95698.22
2022-10-03T19:31:05.782Z,95704.53
2022-10-03T19:33:42.803Z,95701.47
2022-10-03T19:36:17.630Z,95699.03
2022-10-03T19:38:45.895Z,95709.31
2022-10-03T19:41:33.794Z,95713.72
2022-10-03T19:44:14.738Z,95702.16
2022-10-03T19:46:46.852Z,95696.97
2022-10-03T19:49:40.208Z,95693.19
2022-10-03T19:52:29.482Z,95681.63
2022-10-03T19:55:12.987Z,95696.53
2022-10-03T19:57:54.967Z,95693.44
2022-10-03T20:00:25.128Z,95693.66
2022-10-03T20:02:52.794Z,95696.00
2022-10-03T20:05:22.534Z,95700.03
2022-10-03T20:08:07.844Z,95687.78
2022-10-03T20:10:56.190Z,95702.25
2022-10-03T20:13:23.080Z,95690.31
2022-10-03T20:15:50.147Z,95695.75
2022-10-03T20:18:32.011Z,95697.47
2022-10-03T20:20:59.128Z,95691.84
2022-10-03T20:23:27.647Z,95692.03
2022-10-03T20:26:20.281Z,95702.13
2022-10-03T20:28:52.657Z,95702.81
2022-10-03T20:31:22.778Z,95696.09
2022-10-03T20:33:51.366Z,95701.75
2022-10-03T20:36:21.911Z,95693.09
2022-10-03T20:39:11.834Z,95705.94
2022-10-03T20:41:41.513Z,95704.06
2022-10-03T20:44:23.653Z,95697.22
2022-10-03T20:46:51.991Z,95701.03
2022-10-03T20:49:32.539Z,95706.72
2022-10-03T20:52:01.190Z,95699.31
2022-10-03T20:54:47.982Z,95701.59
2022-10-03T20:57:17.249Z,95692.09
2022-10-03T20:59:49.570Z,95699.84
2022-10-03T21:02:24.715Z,95698.91
2022-10-03T21:04:55.004Z,95688.41
2022-10-03T21:07:38.430Z,95698.13
2022-10-03T21:10:20.711Z,95701.84
2022-10-03T21:12:50.027Z,95698.22
2022-10-03T21:15:25.870Z,95701.03
2022-10-03T21:17:55.609Z,95695.72
2022-10-03T21:20:28.382Z,95690.78
2022-10-03T21:22:58.968Z,95699.31
2022-10-03T21:25:36.812Z,95697.94
2022-10-03T21:28:04.000Z,95692.53
2022-10-03T21:30:58.820Z,95706.53
2022-10-03T21:33:59.908Z,95703.63
2022-10-03T21:36:38.579Z,95707.66
2022-10-03T21:39:17.767Z,95704.91
2022-10-03T21:42:19.716Z,95707.06
2022-10-03T21:44:58.536Z,95712.13
2022-10-03T21:47:53.160Z,95705.47
2022-10-03T21:50:31.901Z,95707.69
2022-10-03T21:53:08.280Z,95708.50
2022-10-03T21:55:52.252Z,95703.72
2022-10-03T21:58:53.874Z,95713.16
2022-10-03T22:01:44.950Z,95707.03
2022-10-03T22:04:21.817Z,95711.66
2022-10-03T22:06:58.075Z,95707.16
2022-10-03T22:09:24.547Z,95707.81
2022-10-03T22:12:00.231Z,95703.97
2022-10-03T22:14:37.731Z,95701.06
2022-10-03T22:17:41.921Z,95707.47
2022-10-03T22:20:16.619Z,95691.72
2022-10-03T22:23:04.467Z,95702.09
2022-10-03T22:25:56.717Z,95693.63
2022-10-03T22:28:41.438Z,95693.50
2022-10-03T22:31:29.364Z,95693.78
2022-10-03T22:34:02.012Z,95687.81
2022-10-03T22:36:29.095Z,95696.50
2022-10-03T22:38:56.010Z,95687.78
2022-10-03T22:41:28.911Z,95690.09
2022-10-03T22:43:56.349Z,95684.19
2022-10-03T22:46:28.760Z,95679.78
2022-10-03T22:49:04.433Z,95685.28
2022-10-03T22:51:31.291Z,95684.00
2022-10-03T22:54:11.671Z,95674.06
2022-10-03T22:56:47.737Z,95678.72
2022-10-03T22:59:39.256Z,95677.97
2022-10-03T23:02:09.022Z,95675.38
2022-10-03T23:04:50.416Z,95677.41
2022-10-03T23:07:23.230Z,95670.22
2022-10-03T23:09:58.825Z,95665.31
2022-10-03T23:12:29.033Z,95669.84
2022-10-03T23:14:56.269Z,95660.13
2022-10-03T23:17:50.375Z,95664.19
2022-10-03T23:20:42.810Z,95656.44
2022-10-03T23:23:16.277Z,95662.31
2022-10-03T23:26:17.735Z,95660.72
2022-10-03T23:29:03.559Z,95662.97
2022-10-03T23:31:56.474Z,95657.72
2022-10-03T23:34:35.251Z,95658.50
2022-10-03T23:37:04.165Z,95662.06
2022-10-03T23:39:35.749Z,95660.53
2022-10-03T23:42:38.743Z,95660.03
2022-10-03T23:45:15.201Z,95655.34
2022-10-03T23:47:56.992Z,95657.94
2022-10-03T23:50:36.839Z,95653.50
2022-10-03T23:53:03.846Z,95653.22
2022-10-03T23:55:33.481Z,95649.75
2022-10-03T23:58:00.519Z,95647.19
